sensor_id;sensor_type;location;lat;lon;timestamp;temperature;humidity
70867;HTU21D;58487;53.474;49.470;2023-11-19T00:00:45;-3.91;75.52
70867;HTU21D;58487;53.474;49.470;2023-11-19T00:03:11;-3.91;75.32
70867;HTU21D;58487;53.474;49.470;2023-11-19T00:05:39;-3.86;75.62
70867;HTU21D;58487;53.474;49.470;2023-11-19T00:08:05;-3.84;75.02
70867;HTU21D;58487;53.474;49.470;2023-11-19T00:10:34;-3.91;76.38
70867;HTU21D;58487;53.474;49.470;2023-11-19T00:13:00;-3.90;75.86
70867;HTU21D;58487;53.474;49.470;2023-11-19T00:15:28;-3.98;79.54
70867;HTU21D;58487;53.474;49.470;2023-11-19T00:17:54;-4.01;75.70
70867;HTU21D;58487;53.474;49.470;2023-11-19T00:20:21;-4.02;75.75
70867;HTU21D;58487;53.474;49.470;2023-11-19T00:22:50;-3.99;78.47
70867;HTU21D;58487;53.474;49.470;2023-11-19T00:25:20;-3.97;75.60
70867;HTU21D;58487;53.474;49.470;2023-11-19T00:27:47;-4.01;76.98
70867;HTU21D;58487;53.474;49.470;2023-11-19T00:30:14;-3.92;75.86
70867;HTU21D;58487;53.474;49.470;2023-11-19T00:32:41;-3.87;74.92
70867;HTU21D;58487;53.474;49.470;2023-11-19T00:35:08;-3.82;74.86
70867;HTU21D;58487;53.474;49.470;2023-11-19T00:37:36;-3.71;74.80
70867;HTU21D;58487;53.474;49.470;2023-11-19T00:40:02;-3.69;74.35
70867;HTU21D;58487;53.474;49.470;2023-11-19T00:42:31;-3.68;82.66
70867;HTU21D;58487;53.474;49.470;2023-11-19T00:44:57;-3.69;74.12
70867;HTU21D;58487;53.474;49.470;2023-11-19T00:47:24;-3.65;74.17
70867;HTU21D;58487;53.474;49.470;2023-11-19T00:49:50;-3.68;74.44
70867;HTU21D;58487;53.474;49.470;2023-11-19T00:52:17;-3.62;73.86
70867;HTU21D;58487;53.474;49.470;2023-11-19T00:54:43;-3.57;74.22
70867;HTU21D;58487;53.474;49.470;2023-11-19T00:57:09;-3.48;73.98
70867;HTU21D;58487;53.474;49.470;2023-11-19T00:59:36;-3.49;74.45
70867;HTU21D;58487;53.474;49.470;2023-11-19T01:02:02;-3.48;74.84
70867;HTU21D;58487;53.474;49.470;2023-11-19T01:04:32;-3.40;73.93
70867;HTU21D;58487;53.474;49.470;2023-11-19T01:06:59;-3.35;73.83
70867;HTU21D;58487;53.474;49.470;2023-11-19T01:09:25;-3.33;73.89
70867;HTU21D;58487;53.474;49.470;2023-11-19T01:11:53;-3.42;74.76
70867;HTU21D;58487;53.474;49.470;2023-11-19T01:14:20;-3.43;75.60
70867;HTU21D;58487;53.474;49.470;2023-11-19T01:16:46;-3.50;78.32
70867;HTU21D;58487;53.474;49.470;2023-11-19T01:19:14;-3.52;79.30
70867;HTU21D;58487;53.474;49.470;2023-11-19T01:21:40;-3.52;78.37
70867;HTU21D;58487;53.474;49.470;2023-11-19T01:24:06;-3.47;76.42
70867;HTU21D;58487;53.474;49.470;2023-11-19T01:26:35;-3.51;75.85
70867;HTU21D;58487;53.474;49.470;2023-11-19T01:29:01;-3.51;75.56
70867;HTU21D;58487;53.474;49.470;2023-11-19T01:31:27;-3.47;74.75
70867;HTU21D;58487;53.474;49.470;2023-11-19T01:33:53;-3.46;88.22
70867;HTU21D;58487;53.474;49.470;2023-11-19T01:36:20;-3.55;76.76
70867;HTU21D;58487;53.474;49.470;2023-11-19T01:38:46;-3.72;77.24
70867;HTU21D;58487;53.474;49.470;2023-11-19T01:41:12;-3.72;77.06
70867;HTU21D;58487;53.474;49.470;2023-11-19T01:43:39;-3.67;75.54
70867;HTU21D;58487;53.474;49.470;2023-11-19T01:46:09;-3.68;74.51
70867;HTU21D;58487;53.474;49.470;2023-11-19T01:48:45;-3.76;76.41
70867;HTU21D;58487;53.474;49.470;2023-11-19T01:51:12;-3.91;76.55
70867;HTU21D;58487;53.474;49.470;2023-11-19T01:53:39;-4.00;77.10
70867;HTU21D;58487;53.474;49.470;2023-11-19T01:56:07;-4.05;79.14
70867;HTU21D;58487;53.474;49.470;2023-11-19T01:58:36;-4.23;76.38
70867;HTU21D;58487;53.474;49.470;2023-11-19T02:01:02;-4.26;79.27
70867;HTU21D;58487;53.474;49.470;2023-11-19T02:03:32;-4.28;78.34
70867;HTU21D;58487;53.474;49.470;2023-11-19T02:05:59;-4.36;78.69
70867;HTU21D;58487;53.474;49.470;2023-11-19T02:08:25;-4.38;77.94
70867;HTU21D;58487;53.474;49.470;2023-11-19T02:10:52;-4.39;78.57
70867;HTU21D;58487;53.474;49.470;2023-11-19T02:13:19;-4.40;80.56
70867;HTU21D;58487;53.474;49.470;2023-11-19T02:15:45;-4.51;77.53
70867;HTU21D;58487;53.474;49.470;2023-11-19T02:18:18;-4.52;77.89
70867;HTU21D;58487;53.474;49.470;2023-11-19T02:20:45;-4.54;77.61
70867;HTU21D;58487;53.474;49.470;2023-11-19T02:23:13;-4.54;78.90
70867;HTU21D;58487;53.474;49.470;2023-11-19T02:25:40;-4.56;77.69
70867;HTU21D;58487;53.474;49.470;2023-11-19T02:28:07;-4.58;79.02
70867;HTU21D;58487;53.474;49.470;2023-11-19T02:30:33;-4.61;78.56
70867;HTU21D;58487;53.474;49.470;2023-11-19T02:32:59;-4.68;76.02
70867;HTU21D;58487;53.474;49.470;2023-11-19T02:35:32;-4.67;78.50
70867;HTU21D;58487;53.474;49.470;2023-11-19T02:37:59;-4.69;77.40
70867;HTU21D;58487;53.474;49.470;2023-11-19T02:40:26;-4.72;77.18
70867;HTU21D;58487;53.474;49.470;2023-11-19T02:42:53;-4.71;76.87
70867;HTU21D;58487;53.474;49.470;2023-11-19T02:45:22;-4.70;76.63
70867;HTU21D;58487;53.474;49.470;2023-11-19T02:47:49;-4.71;76.57
70867;HTU21D;58487;53.474;49.470;2023-11-19T02:50:20;-4.71;76.99
70867;HTU21D;58487;53.474;49.470;2023-11-19T02:52:56;-4.74;76.70
70867;HTU21D;58487;53.474;49.470;2023-11-19T02:55:23;-4.73;78.08
70867;HTU21D;58487;53.474;49.470;2023-11-19T02:57:50;-4.68;76.89
70867;HTU21D;58487;53.474;49.470;2023-11-19T03:00:22;-4.66;78.34
70867;HTU21D;58487;53.474;49.470;2023-11-19T03:03:13;-4.67;76.90
70867;HTU21D;58487;53.474;49.470;2023-11-19T03:05:53;-4.75;75.27
70867;HTU21D;58487;53.474;49.470;2023-11-19T03:08:19;-4.74;75.23
70867;HTU21D;58487;53.474;49.470;2023-11-19T03:10:46;-4.70;76.41
70867;HTU21D;58487;53.474;49.470;2023-11-19T03:13:13;-4.74;75.82
70867;HTU21D;58487;53.474;49.470;2023-11-19T03:15:45;-4.74;79.60
70867;HTU21D;58487;53.474;49.470;2023-11-19T03:18:12;-4.74;74.93
70867;HTU21D;58487;53.474;49.470;2023-11-19T03:20:38;-4.70;77.47
70867;HTU21D;58487;53.474;49.470;2023-11-19T03:23:04;-4.70;76.19
70867;HTU21D;58487;53.474;49.470;2023-11-19T03:25:32;-4.72;76.66
70867;HTU21D;58487;53.474;49.470;2023-11-19T03:28:03;-4.76;77.19
70867;HTU21D;58487;53.474;49.470;2023-11-19T03:30:31;-4.79;76.79
70867;HTU21D;58487;53.474;49.470;2023-11-19T03:32:57;-4.81;76.42
70867;HTU21D;58487;53.474;49.470;2023-11-19T03:35:24;-4.79;79.32
70867;HTU21D;58487;53.474;49.470;2023-11-19T03:37:51;-4.72;80.82
70867;HTU21D;58487;53.474;49.470;2023-11-19T03:40:17;-4.75;80.65
70867;HTU21D;58487;53.474;49.470;2023-11-19T03:42:46;-4.74;79.53
70867;HTU21D;58487;53.474;49.470;2023-11-19T03:45:13;-4.76;89.59
70867;HTU21D;58487;53.474;49.470;2023-11-19T03:47:40;-4.84;82.12
70867;HTU21D;58487;53.474;49.470;2023-11-19T03:50:06;-4.82;83.58
70867;HTU21D;58487;53.474;49.470;2023-11-19T03:52:35;-4.81;90.07
70867;HTU21D;58487;53.474;49.470;2023-11-19T03:55:01;-4.82;82.10
70867;HTU21D;58487;53.474;49.470;2023-11-19T03:57:30;-4.75;82.35
70867;HTU21D;58487;53.474;49.470;2023-11-19T03:59:57;-4.73;78.66
70867;HTU21D;58487;53.474;49.470;2023-11-19T04:02:24;-4.70;81.44
70867;HTU21D;58487;53.474;49.470;2023-11-19T04:04:54;-4.81;76.59
70867;HTU21D;58487;53.474;49.470;2023-11-19T04:07:20;-4.71;79.33
70867;HTU21D;58487;53.474;49.470;2023-11-19T04:09:47;-4.70;80.68
70867;HTU21D;58487;53.474;49.470;2023-11-19T04:12:13;-4.69;79.73
70867;HTU21D;58487;53.474;49.470;2023-11-19T04:14:39;-4.71;80.10
70867;HTU21D;58487;53.474;49.470;2023-11-19T04:17:06;-4.69;84.23
70867;HTU21D;58487;53.474;49.470;2023-11-19T04:19:32;-4.79;79.99
70867;HTU21D;58487;53.474;49.470;2023-11-19T04:21:58;-4.78;79.00
70867;HTU21D;58487;53.474;49.470;2023-11-19T04:24:24;-4.74;80.17
70867;HTU21D;58487;53.474;49.470;2023-11-19T04:26:50;-4.67;80.65
70867;HTU21D;58487;53.474;49.470;2023-11-19T04:29:16;-4.68;82.73
70867;HTU21D;58487;53.474;49.470;2023-11-19T04:31:45;-4.67;79.60
70867;HTU21D;58487;53.474;49.470;2023-11-19T04:34:12;-4.63;80.26
70867;HTU21D;58487;53.474;49.470;2023-11-19T04:36:38;-4.65;81.49
70867;HTU21D;58487;53.474;49.470;2023-11-19T04:39:04;-4.70;80.65
70867;HTU21D;58487;53.474;49.470;2023-11-19T04:41:48;-4.72;80.98
70867;HTU21D;58487;53.474;49.470;2023-11-19T04:44:15;-4.66;82.08
70867;HTU21D;58487;53.474;49.470;2023-11-19T04:46:42;-4.69;78.75
70867;HTU21D;58487;53.474;49.470;2023-11-19T04:49:10;-4.68;79.54
70867;HTU21D;58487;53.474;49.470;2023-11-19T04:51:44;-4.65;80.51
70867;HTU21D;58487;53.474;49.470;2023-11-19T04:54:11;-4.63;78.60
70867;HTU21D;58487;53.474;49.470;2023-11-19T04:56:37;-4.71;81.04
70867;HTU21D;58487;53.474;49.470;2023-11-19T04:59:04;-4.61;81.33
70867;HTU21D;58487;53.474;49.470;2023-11-19T05:01:34;-4.60;82.12
70867;HTU21D;58487;53.474;49.470;2023-11-19T05:04:01;-4.65;83.05
70867;HTU21D;58487;53.474;49.470;2023-11-19T05:06:30;-4.57;79.98
70867;HTU21D;58487;53.474;49.470;2023-11-19T05:08:58;-4.64;81.56
70867;HTU21D;58487;53.474;49.470;2023-11-19T05:11:24;-4.60;80.93
70867;HTU21D;58487;53.474;49.470;2023-11-19T05:13:50;-4.59;80.01
70867;HTU21D;58487;53.474;49.470;2023-11-19T05:16:16;-4.56;79.55
70867;HTU21D;58487;53.474;49.470;2023-11-19T05:18:43;-4.60;79.18
70867;HTU21D;58487;53.474;49.470;2023-11-19T05:21:10;-4.59;79.82
70867;HTU21D;58487;53.474;49.470;2023-11-19T05:23:36;-4.60;78.70
70867;HTU21D;58487;53.474;49.470;2023-11-19T05:26:02;-4.61;77.76
70867;HTU21D;58487;53.474;49.470;2023-11-19T05:28:28;-4.60;78.57
70867;HTU21D;58487;53.474;49.470;2023-11-19T05:30:54;-4.59;78.83
70867;HTU21D;58487;53.474;49.470;2023-11-19T05:33:21;-4.56;80.40
70867;HTU21D;58487;53.474;49.470;2023-11-19T05:35:47;-4.44;79.60
70867;HTU21D;58487;53.474;49.470;2023-11-19T05:38:13;-4.43;81.55
70867;HTU21D;58487;53.474;49.470;2023-11-19T05:40:41;-4.35;83.32
70867;HTU21D;58487;53.474;49.470;2023-11-19T05:43:07;-4.42;80.92
70867;HTU21D;58487;53.474;49.470;2023-11-19T05:45:33;-4.43;79.41
70867;HTU21D;58487;53.474;49.470;2023-11-19T05:47:59;-4.53;84.29
70867;HTU21D;58487;53.474;49.470;2023-11-19T05:50:25;-4.52;81.44
70867;HTU21D;58487;53.474;49.470;2023-11-19T05:52:51;-4.51;84.05
70867;HTU21D;58487;53.474;49.470;2023-11-19T05:55:18;-4.52;81.93
70867;HTU21D;58487;53.474;49.470;2023-11-19T05:57:45;-4.51;81.36
70867;HTU21D;58487;53.474;49.470;2023-11-19T06:00:11;-4.50;87.10
70867;HTU21D;58487;53.474;49.470;2023-11-19T06:02:39;-4.56;85.45
70867;HTU21D;58487;53.474;49.470;2023-11-19T06:05:05;-4.53;85.24
70867;HTU21D;58487;53.474;49.470;2023-11-19T06:07:33;-4.56;84.06
70867;HTU21D;58487;53.474;49.470;2023-11-19T06:09:59;-4.49;84.03
70867;HTU21D;58487;53.474;49.470;2023-11-19T06:12:25;-4.40;82.63
70867;HTU21D;58487;53.474;49.470;2023-11-19T06:14:53;-4.30;85.33
70867;HTU21D;58487;53.474;49.470;2023-11-19T06:17:19;-4.29;83.66
70867;HTU21D;58487;53.474;49.470;2023-11-19T06:19:45;-4.25;87.12
70867;HTU21D;58487;53.474;49.470;2023-11-19T06:22:11;-4.27;85.38
70867;HTU21D;58487;53.474;49.470;2023-11-19T06:24:37;-4.09;83.85
70867;HTU21D;58487;53.474;49.470;2023-11-19T06:27:03;-4.05;82.30
70867;HTU21D;58487;53.474;49.470;2023-11-19T06:29:30;-4.00;79.62
70867;HTU21D;58487;53.474;49.470;2023-11-19T06:31:56;-3.91;89.88
70867;HTU21D;58487;53.474;49.470;2023-11-19T06:34:22;-3.78;76.36
70867;HTU21D;58487;53.474;49.470;2023-11-19T06:36:48;-3.70;81.22
70867;HTU21D;58487;53.474;49.470;2023-11-19T06:39:14;-3.58;82.16
70867;HTU21D;58487;53.474;49.470;2023-11-19T06:41:47;-3.58;81.33
70867;HTU21D;58487;53.474;49.470;2023-11-19T06:44:13;-3.76;84.47
70867;HTU21D;58487;53.474;49.470;2023-11-19T06:46:39;-3.71;80.58
70867;HTU21D;58487;53.474;49.470;2023-11-19T06:49:06;-3.58;75.34
70867;HTU21D;58487;53.474;49.470;2023-11-19T06:51:34;-3.43;75.44
70867;HTU21D;58487;53.474;49.470;2023-11-19T06:54:00;-3.54;74.74
70867;HTU21D;58487;53.474;49.470;2023-11-19T06:56:26;-3.62;84.85
70867;HTU21D;58487;53.474;49.470;2023-11-19T06:58:52;-3.68;80.76
70867;HTU21D;58487;53.474;49.470;2023-11-19T07:01:19;-3.62;79.49
70867;HTU21D;58487;53.474;49.470;2023-11-19T07:03:46;-3.63;76.37
70867;HTU21D;58487;53.474;49.470;2023-11-19T07:06:12;-3.61;75.38
70867;HTU21D;58487;53.474;49.470;2023-11-19T07:08:41;-3.50;74.23
70867;HTU21D;58487;53.474;49.470;2023-11-19T07:11:11;-3.51;77.99
70867;HTU21D;58487;53.474;49.470;2023-11-19T07:13:37;-3.61;78.48
70867;HTU21D;58487;53.474;49.470;2023-11-19T07:16:04;-3.79;82.86
70867;HTU21D;58487;53.474;49.470;2023-11-19T07:18:31;-3.75;81.45
70867;HTU21D;58487;53.474;49.470;2023-11-19T07:20:57;-3.49;78.98
70867;HTU21D;58487;53.474;49.470;2023-11-19T07:23:25;-3.63;85.64
70867;HTU21D;58487;53.474;49.470;2023-11-19T07:25:51;-3.54;77.82
70867;HTU21D;58487;53.474;49.470;2023-11-19T07:28:19;-3.53;81.51
70867;HTU21D;58487;53.474;49.470;2023-11-19T07:30:45;-3.52;78.85
70867;HTU21D;58487;53.474;49.470;2023-11-19T07:33:11;-3.46;81.75
70867;HTU21D;58487;53.474;49.470;2023-11-19T07:35:37;-3.55;82.26
70867;HTU21D;58487;53.474;49.470;2023-11-19T07:38:03;-3.71;84.16
70867;HTU21D;58487;53.474;49.470;2023-11-19T07:40:29;-3.71;78.18
70867;HTU21D;58487;53.474;49.470;2023-11-19T07:42:55;-3.60;79.70
70867;HTU21D;58487;53.474;49.470;2023-11-19T07:45:21;-3.58;82.62
70867;HTU21D;58487;53.474;49.470;2023-11-19T07:47:47;-3.85;81.66
70867;HTU21D;58487;53.474;49.470;2023-11-19T07:50:13;-3.89;75.98
70867;HTU21D;58487;53.474;49.470;2023-11-19T07:52:42;-3.78;78.08
70867;HTU21D;58487;53.474;49.470;2023-11-19T07:55:08;-3.72;76.57
70867;HTU21D;58487;53.474;49.470;2023-11-19T07:57:35;-3.65;79.46
70867;HTU21D;58487;53.474;49.470;2023-11-19T08:00:02;-3.54;76.71
70867;HTU21D;58487;53.474;49.470;2023-11-19T08:02:32;-3.55;77.05
70867;HTU21D;58487;53.474;49.470;2023-11-19T08:04:59;-3.52;77.98
70867;HTU21D;58487;53.474;49.470;2023-11-19T08:07:25;-3.43;82.90
70867;HTU21D;58487;53.474;49.470;2023-11-19T08:09:51;-3.36;78.47
70867;HTU21D;58487;53.474;49.470;2023-11-19T08:12:17;-3.38;80.98
70867;HTU21D;58487;53.474;49.470;2023-11-19T08:14:44;-3.42;82.27
70867;HTU21D;58487;53.474;49.470;2023-11-19T08:17:10;-3.18;76.31
70867;HTU21D;58487;53.474;49.470;2023-11-19T08:19:36;-3.20;80.07
70867;HTU21D;58487;53.474;49.470;2023-11-19T08:22:02;-3.21;75.44
70867;HTU21D;58487;53.474;49.470;2023-11-19T08:24:29;-3.04;79.27
70867;HTU21D;58487;53.474;49.470;2023-11-19T08:26:57;-3.09;74.48
70867;HTU21D;58487;53.474;49.470;2023-11-19T08:29:24;-2.96;76.89
70867;HTU21D;58487;53.474;49.470;2023-11-19T08:31:50;-3.09;77.35
70867;HTU21D;58487;53.474;49.470;2023-11-19T08:34:16;-3.04;75.57
70867;HTU21D;58487;53.474;49.470;2023-11-19T08:36:44;-3.08;78.53
70867;HTU21D;58487;53.474;49.470;2023-11-19T08:39:10;-3.23;73.61
70867;HTU21D;58487;53.474;49.470;2023-11-19T08:41:36;-3.13;77.77
70867;HTU21D;58487;53.474;49.470;2023-11-19T08:44:05;-3.24;73.10
70867;HTU21D;58487;53.474;49.470;2023-11-19T08:46:31;-3.25;74.73
70867;HTU21D;58487;53.474;49.470;2023-11-19T08:48:57;-3.09;76.01
70867;HTU21D;58487;53.474;49.470;2023-11-19T08:51:25;-3.05;73.00
70867;HTU21D;58487;53.474;49.470;2023-11-19T08:53:51;-3.20;77.33
70867;HTU21D;58487;53.474;49.470;2023-11-19T08:56:17;-3.07;74.23
70867;HTU21D;58487;53.474;49.470;2023-11-19T08:58:44;-2.96;73.66
70867;HTU21D;58487;53.474;49.470;2023-11-19T09:01:10;-2.89;73.20
70867;HTU21D;58487;53.474;49.470;2023-11-19T09:03:36;-2.96;76.14
70867;HTU21D;58487;53.474;49.470;2023-11-19T09:06:03;-3.12;72.12
70867;HTU21D;58487;53.474;49.470;2023-11-19T09:08:29;-3.17;71.67
70867;HTU21D;58487;53.474;49.470;2023-11-19T09:10:55;-2.97;71.17
70867;HTU21D;58487;53.474;49.470;2023-11-19T09:13:21;-2.98;72.31
70867;HTU21D;58487;53.474;49.470;2023-11-19T09:15:48;-2.78;75.52
70867;HTU21D;58487;53.474;49.470;2023-11-19T09:18:14;-2.60;70.07
70867;HTU21D;58487;53.474;49.470;2023-11-19T09:20:40;-2.68;71.94
70867;HTU21D;58487;53.474;49.470;2023-11-19T09:23:06;-3.00;71.92
70867;HTU21D;58487;53.474;49.470;2023-11-19T09:25:34;-2.86;71.61
70867;HTU21D;58487;53.474;49.470;2023-11-19T09:28:01;-3.02;70.52
70867;HTU21D;58487;53.474;49.470;2023-11-19T09:30:28;-2.90;72.42
70867;HTU21D;58487;53.474;49.470;2023-11-19T09:32:54;-2.88;71.64
70867;HTU21D;58487;53.474;49.470;2023-11-19T09:35:20;-2.90;72.94
70867;HTU21D;58487;53.474;49.470;2023-11-19T09:37:46;-3.00;72.31
70867;HTU21D;58487;53.474;49.470;2023-11-19T09:40:12;-1.99;68.31
70867;HTU21D;58487;53.474;49.470;2023-11-19T09:42:44;-1.70;68.39
70867;HTU21D;58487;53.474;49.470;2023-11-19T09:45:14;-1.71;67.07
70867;HTU21D;58487;53.474;49.470;2023-11-19T09:47:45;-2.00;69.33
70867;HTU21D;58487;53.474;49.470;2023-11-19T09:50:19;-2.38;71.51
70867;HTU21D;58487;53.474;49.470;2023-11-19T09:52:46;-2.47;69.69
70867;HTU21D;58487;53.474;49.470;2023-11-19T09:55:14;-2.67;71.00
70867;HTU21D;58487;53.474;49.470;2023-11-19T09:57:40;-2.47;69.82
70867;HTU21D;58487;53.474;49.470;2023-11-19T10:00:08;-2.49;70.14
70867;HTU21D;58487;53.474;49.470;2023-11-19T10:02:38;-2.74;70.51
70867;HTU21D;58487;53.474;49.470;2023-11-19T10:05:08;-2.73;76.15
70867;HTU21D;58487;53.474;49.470;2023-11-19T10:07:36;-2.71;71.44
70867;HTU21D;58487;53.474;49.470;2023-11-19T10:10:03;-2.68;71.13
70867;HTU21D;58487;53.474;49.470;2023-11-19T10:12:33;-2.73;71.32
70867;HTU21D;58487;53.474;49.470;2023-11-19T10:14:59;-2.89;70.87
70867;HTU21D;58487;53.474;49.470;2023-11-19T10:17:32;-2.71;70.21
70867;HTU21D;58487;53.474;49.470;2023-11-19T10:19:58;-2.82;68.46
70867;HTU21D;58487;53.474;49.470;2023-11-19T10:22:25;-2.59;68.01
70867;HTU21D;58487;53.474;49.470;2023-11-19T10:24:52;-2.53;69.37
70867;HTU21D;58487;53.474;49.470;2023-11-19T10:27:19;-2.64;69.56
70867;HTU21D;58487;53.474;49.470;2023-11-19T10:29:46;-2.75;67.94
70867;HTU21D;58487;53.474;49.470;2023-11-19T10:32:13;-2.78;69.72
70867;HTU21D;58487;53.474;49.470;2023-11-19T10:34:40;-3.04;70.87
70867;HTU21D;58487;53.474;49.470;2023-11-19T10:37:08;-3.04;70.39
70867;HTU21D;58487;53.474;49.470;2023-11-19T10:39:53;-2.97;72.27
70867;HTU21D;58487;53.474;49.470;2023-11-19T10:42:23;-2.81;75.79
70867;HTU21D;58487;53.474;49.470;2023-11-19T10:44:49;-2.60;70.86
70867;HTU21D;58487;53.474;49.470;2023-11-19T10:47:15;-2.62;72.03
70867;HTU21D;58487;53.474;49.470;2023-11-19T10:49:45;-2.76;71.29
70867;HTU21D;58487;53.474;49.470;2023-11-19T10:52:20;-2.34;69.00
70867;HTU21D;58487;53.474;49.470;2023-11-19T10:54:50;-2.09;68.10
70867;HTU21D;58487;53.474;49.470;2023-11-19T10:57:21;-2.52;70.59
70867;HTU21D;58487;53.474;49.470;2023-11-19T10:59:54;-2.54;69.31
70867;HTU21D;58487;53.474;49.470;2023-11-19T11:02:24;-2.66;70.45
70867;HTU21D;58487;53.474;49.470;2023-11-19T11:04:51;-2.61;71.97
70867;HTU21D;58487;53.474;49.470;2023-11-19T11:07:21;-2.73;70.90
70867;HTU21D;58487;53.474;49.470;2023-11-19T11:09:49;-2.74;71.58
70867;HTU21D;58487;53.474;49.470;2023-11-19T11:12:15;-2.39;70.50
70867;HTU21D;58487;53.474;49.470;2023-11-19T11:14:44;-2.58;67.10
70867;HTU21D;58487;53.474;49.470;2023-11-19T11:17:12;-2.15;66.87
70867;HTU21D;58487;53.474;49.470;2023-11-19T11:19:42;-1.47;68.09
70867;HTU21D;58487;53.474;49.470;2023-11-19T11:22:09;-1.14;70.45
70867;HTU21D;58487;53.474;49.470;2023-11-19T11:25:08;-1.65;68.27
70867;HTU21D;58487;53.474;49.470;2023-11-19T11:30:54;-1.99;74.39
70867;HTU21D;58487;53.474;49.470;2023-11-19T11:34:09;-2.08;77.00
70867;HTU21D;58487;53.474;49.470;2023-11-19T11:36:20;-2.38;77.60
70867;HTU21D;58487;53.474;49.470;2023-11-19T11:38:48;-2.60;82.23
70867;HTU21D;58487;53.474;49.470;2023-11-19T11:41:19;-2.77;78.63
70867;HTU21D;58487;53.474;49.470;2023-11-19T11:43:51;-3.28;86.62
70867;HTU21D;58487;53.474;49.470;2023-11-19T11:49:03;-2.63;84.78
70867;HTU21D;58487;53.474;49.470;2023-11-19T11:54:11;-2.56;77.57
70867;HTU21D;58487;53.474;49.470;2023-11-19T11:57:12;-2.64;76.60
70867;HTU21D;58487;53.474;49.470;2023-11-19T12:02:09;-2.80;79.31
70867;HTU21D;58487;53.474;49.470;2023-11-19T12:04:36;-3.24;76.76
70867;HTU21D;58487;53.474;49.470;2023-11-19T12:07:34;-3.22;74.41
70867;HTU21D;58487;53.474;49.470;2023-11-19T12:10:08;-3.13;77.16
70867;HTU21D;58487;53.474;49.470;2023-11-19T12:12:34;-3.31;76.62
70867;HTU21D;58487;53.474;49.470;2023-11-19T12:15:03;-3.64;80.81
70867;HTU21D;58487;53.474;49.470;2023-11-19T12:20:01;-3.86;80.24
70867;HTU21D;58487;53.474;49.470;2023-11-19T12:22:27;-4.12;80.56
70867;HTU21D;58487;53.474;49.470;2023-11-19T12:24:54;-4.04;76.30
70867;HTU21D;58487;53.474;49.470;2023-11-19T12:27:21;-4.28;80.46
70867;HTU21D;58487;53.474;49.470;2023-11-19T12:29:51;-4.39;95.59
70867;HTU21D;58487;53.474;49.470;2023-11-19T12:32:17;-4.39;81.85
70867;HTU21D;58487;53.474;49.470;2023-11-19T12:34:45;-4.48;82.38
70867;HTU21D;58487;53.474;49.470;2023-11-19T12:37:11;-4.35;80.29
70867;HTU21D;58487;53.474;49.470;2023-11-19T12:39:37;-4.24;82.06
70867;HTU21D;58487;53.474;49.470;2023-11-19T12:42:03;-4.28;88.96
70867;HTU21D;58487;53.474;49.470;2023-11-19T12:44:30;-4.51;95.93
70867;HTU21D;58487;53.474;49.470;2023-11-19T12:49:29;-4.73;93.47
70867;HTU21D;58487;53.474;49.470;2023-11-19T12:51:56;-4.66;85.32
70867;HTU21D;58487;53.474;49.470;2023-11-19T12:54:35;-4.65;89.83
70867;HTU21D;58487;53.474;49.470;2023-11-19T12:57:03;-4.59;90.81
70867;HTU21D;58487;53.474;49.470;2023-11-19T12:59:31;-4.66;89.57
70867;HTU21D;58487;53.474;49.470;2023-11-19T13:01:58;-4.94;93.09
70867;HTU21D;58487;53.474;49.470;2023-11-19T13:04:28;-4.64;93.79
70867;HTU21D;58487;53.474;49.470;2023-11-19T13:06:57;-4.81;90.41
70867;HTU21D;58487;53.474;49.470;2023-11-19T13:09:27;-4.72;90.21
70867;HTU21D;58487;53.474;49.470;2023-11-19T13:11:55;-4.84;93.91
70867;HTU21D;58487;53.474;49.470;2023-11-19T13:14:22;-4.95;111.75
70867;HTU21D;58487;53.474;49.470;2023-11-19T13:16:49;-5.05;113.05
70867;HTU21D;58487;53.474;49.470;2023-11-19T13:19:16;-4.86;90.97
70867;HTU21D;58487;53.474;49.470;2023-11-19T13:21:42;-4.91;97.70
70867;HTU21D;58487;53.474;49.470;2023-11-19T13:24:09;-4.67;109.13
70867;HTU21D;58487;53.474;49.470;2023-11-19T13:26:35;-4.71;110.80
70867;HTU21D;58487;53.474;49.470;2023-11-19T13:29:02;-4.79;117.32
70867;HTU21D;58487;53.474;49.470;2023-11-19T13:31:29;-4.94;105.20
70867;HTU21D;58487;53.474;49.470;2023-11-19T13:33:55;-5.23;97.36
70867;HTU21D;58487;53.474;49.470;2023-11-19T13:36:22;-4.99;97.61
70867;HTU21D;58487;53.474;49.470;2023-11-19T13:38:49;-4.74;97.55
70867;HTU21D;58487;53.474;49.470;2023-11-19T13:41:15;-4.89;105.49
70867;HTU21D;58487;53.474;49.470;2023-11-19T13:43:41;-4.87;107.53
70867;HTU21D;58487;53.474;49.470;2023-11-19T13:46:08;-4.85;111.37
70867;HTU21D;58487;53.474;49.470;2023-11-19T13:48:37;-4.90;111.12
70867;HTU21D;58487;53.474;49.470;2023-11-19T13:51:03;-5.20;98.35
70867;HTU21D;58487;53.474;49.470;2023-11-19T13:53:29;-4.84;118.99
70867;HTU21D;58487;53.474;49.470;2023-11-19T13:55:55;-4.86;118.11
70867;HTU21D;58487;53.474;49.470;2023-11-19T13:58:21;-4.70;118.99
70867;HTU21D;58487;53.474;49.470;2023-11-19T14:00:47;-4.76;103.52
70867;HTU21D;58487;53.474;49.470;2023-11-19T14:03:13;-4.73;108.69
70867;HTU21D;58487;53.474;49.470;2023-11-19T14:05:39;-4.60;118.99
70867;HTU21D;58487;53.474;49.470;2023-11-19T14:08:07;-4.76;118.99
70867;HTU21D;58487;53.474;49.470;2023-11-19T14:10:38;-4.63;118.99
70867;HTU21D;58487;53.474;49.470;2023-11-19T14:13:06;-4.66;118.99
70867;HTU21D;58487;53.474;49.470;2023-11-19T14:15:33;-4.73;118.99
70867;HTU21D;58487;53.474;49.470;2023-11-19T14:17:59;-4.71;118.99
70867;HTU21D;58487;53.474;49.470;2023-11-19T14:20:25;-4.81;118.99
70867;HTU21D;58487;53.474;49.470;2023-11-19T14:22:51;-4.87;112.53
70867;HTU21D;58487;53.474;49.470;2023-11-19T14:25:18;-4.83;118.99
70867;HTU21D;58487;53.474;49.470;2023-11-19T14:27:45;-4.80;118.99
70867;HTU21D;58487;53.474;49.470;2023-11-19T14:30:14;-4.90;118.99
70867;HTU21D;58487;53.474;49.470;2023-11-19T14:32:41;-4.99;118.99
70867;HTU21D;58487;53.474;49.470;2023-11-19T14:35:08;-4.94;118.99
70867;HTU21D;58487;53.474;49.470;2023-11-19T14:37:34;-4.93;118.99
70867;HTU21D;58487;53.474;49.470;2023-11-19T14:40:01;-4.70;112.16
70867;HTU21D;58487;53.474;49.470;2023-11-19T14:42:29;-4.58;118.99
70867;HTU21D;58487;53.474;49.470;2023-11-19T14:44:55;-4.69;118.99
70867;HTU21D;58487;53.474;49.470;2023-11-19T14:47:22;-4.89;118.99
70867;HTU21D;58487;53.474;49.470;2023-11-19T14:49:48;-4.90;118.99
70867;HTU21D;58487;53.474;49.470;2023-11-19T14:52:16;-4.84;118.99
70867;HTU21D;58487;53.474;49.470;2023-11-19T14:54:44;-4.82;118.99
70867;HTU21D;58487;53.474;49.470;2023-11-19T14:57:11;-4.71;118.92
70867;HTU21D;58487;53.474;49.470;2023-11-19T14:59:37;-4.58;109.86
70867;HTU21D;58487;53.474;49.470;2023-11-19T15:02:04;-4.64;111.81
70867;HTU21D;58487;53.474;49.470;2023-11-19T15:04:32;-4.65;106.63
70867;HTU21D;58487;53.474;49.470;2023-11-19T15:06:59;-4.70;101.89
70867;HTU21D;58487;53.474;49.470;2023-11-19T15:09:25;-4.78;108.48
70867;HTU21D;58487;53.474;49.470;2023-11-19T15:11:54;-4.86;104.63
70867;HTU21D;58487;53.474;49.470;2023-11-19T15:14:20;-4.95;104.67
70867;HTU21D;58487;53.474;49.470;2023-11-19T15:16:47;-4.82;102.04
70867;HTU21D;58487;53.474;49.470;2023-11-19T15:19:13;-4.68;100.98